createdAt,value
2018-06-23T00:01:04.172Z,15.63
2018-06-23T00:03:32.420Z,15.62
2018-06-23T00:06:00.817Z,15.57
2018-06-23T00:08:29.052Z,15.59
2018-06-23T00:10:57.400Z,15.59
2018-06-23T00:13:25.652Z,15.61
2018-06-23T00:15:53.873Z,15.60
2018-06-23T00:18:22.133Z,15.60
2018-06-23T00:20:50.361Z,15.57
2018-06-23T00:23:18.575Z,15.55
2018-06-23T00:25:52.238Z,15.56
2018-06-23T00:28:20.458Z,15.55
2018-06-23T00:30:48.694Z,15.52
2018-06-23T00:33:16.901Z,15.52
2018-06-23T00:35:45.156Z,15.51
2018-06-23T00:38:13.412Z,15.51
2018-06-23T00:40:41.645Z,15.49
2018-06-23T00:43:09.948Z,15.47
2018-06-23T00:45:38.188Z,15.47
2018-06-23T00:48:06.408Z,15.46
2018-06-23T00:50:34.652Z,15.44
2018-06-23T00:53:02.929Z,15.41
2018-06-23T00:55:31.169Z,15.41
2018-06-23T00:57:59.409Z,15.42
2018-06-23T01:00:27.625Z,15.39
2018-06-23T01:02:55.848Z,15.39
2018-06-23T01:05:24.133Z,15.35
2018-06-23T01:07:52.463Z,15.34
2018-06-23T01:10:20.712Z,15.32
2018-06-23T01:12:48.960Z,15.32
2018-06-23T01:15:17.180Z,15.32
2018-06-23T01:17:45.500Z,15.31
2018-06-23T01:20:13.745Z,15.29
2018-06-23T01:22:42.031Z,15.29
2018-06-23T01:25:10.241Z,15.27
2018-06-23T01:27:38.516Z,15.25
2018-06-23T01:30:06.963Z,15.22
2018-06-23T01:32:35.184Z,15.23
2018-06-23T01:35:03.546Z,15.18
2018-06-23T01:37:31.808Z,15.12
2018-06-23T01:40:00.033Z,15.10
2018-06-23T01:42:28.261Z,15.05
2018-06-23T01:44:56.546Z,15.02
2018-06-23T01:47:24.774Z,15.01
2018-06-23T01:49:52.987Z,15.02
2018-06-23T01:52:21.236Z,15.00
2018-06-23T01:54:49.508Z,14.95
2018-06-23T01:57:17.776Z,14.94
2018-06-23T01:59:45.993Z,14.95
2018-06-23T02:02:14.198Z,14.95
2018-06-23T02:04:42.424Z,14.93
2018-06-23T02:07:10.672Z,14.89
2018-06-23T02:09:38.916Z,14.89
2018-06-23T02:12:07.389Z,14.90
2018-06-23T02:14:41.011Z,14.90
2018-06-23T02:17:14.565Z,14.89
2018-06-23T02:19:48.033Z,14.87
2018-06-23T02:22:21.581Z,14.85
2018-06-23T02:24:55.058Z,14.81
2018-06-23T02:27:28.630Z,14.81
2018-06-23T02:30:02.206Z,14.81
2018-06-23T02:32:35.821Z,14.79
2018-06-23T02:35:05.720Z,14.77
2018-06-23T02:37:36.341Z,14.75
2018-06-23T02:40:05.072Z,14.74
2018-06-23T02:42:33.455Z,14.74
2018-06-23T02:45:01.885Z,14.68
2018-06-23T02:47:30.085Z,14.68
2018-06-23T02:50:00.052Z,14.70
2018-06-23T02:52:29.456Z,14.72
2018-06-23T02:54:57.705Z,14.72
2018-06-23T02:57:25.908Z,14.73
2018-06-23T02:59:54.156Z,14.73
2018-06-23T03:02:22.413Z,14.72
2018-06-23T03:04:50.653Z,14.69
2018-06-23T03:07:18.913Z,14.69
2018-06-23T03:09:47.236Z,14.69
2018-06-23T03:12:15.477Z,14.67
2018-06-23T03:14:43.697Z,14.66
2018-06-23T03:17:17.984Z,14.64
2018-06-23T03:19:48.858Z,14.57
2018-06-23T03:22:17.089Z,14.53
2018-06-23T03:24:45.484Z,14.52
2018-06-23T03:27:13.982Z,14.51
2018-06-23T03:29:42.205Z,14.48
2018-06-23T03:32:11.089Z,14.48
2018-06-23T03:34:39.340Z,14.48
2018-06-23T03:37:07.624Z,14.50
2018-06-23T03:39:35.832Z,14.49
2018-06-23T03:42:04.089Z,14.48
2018-06-23T03:44:32.313Z,14.48
2018-06-23T03:47:00.564Z,14.48
2018-06-23T03:49:28.793Z,14.48
2018-06-23T03:51:57.055Z,14.47
2018-06-23T03:54:25.554Z,14.46
2018-06-23T03:56:53.960Z,14.43
2018-06-23T03:59:22.192Z,14.46
2018-06-23T04:01:50.405Z,14.46
2018-06-23T04:04:18.629Z,14.47
2018-06-23T04:06:46.853Z,14.44
2018-06-23T04:09:15.277Z,14.45
2018-06-23T04:11:43.485Z,14.46
2018-06-23T04:14:11.724Z,14.48
2018-06-23T04:16:39.954Z,14.49
2018-06-23T04:19:08.145Z,14.47
2018-06-23T04:21:36.705Z,14.47
2018-06-23T04:24:04.986Z,14.48
2018-06-23T04:26:33.221Z,14.46
2018-06-23T04:29:01.441Z,14.44
2018-06-23T04:31:29.694Z,14.44
2018-06-23T04:33:57.912Z,14.45
2018-06-23T04:36:26.134Z,14.47
2018-06-23T04:38:54.400Z,14.47
2018-06-23T04:41:22.625Z,14.47
2018-06-23T04:43:51.832Z,14.48
2018-06-23T04:46:20.043Z,14.47
2018-06-23T04:48:48.260Z,14.48
2018-06-23T04:51:16.473Z,14.45
2018-06-23T04:53:46.909Z,14.45
2018-06-23T04:56:15.954Z,14.43
2018-06-23T04:58:44.247Z,14.39
2018-06-23T05:01:12.705Z,14.35
2018-06-23T05:03:41.273Z,14.36
2018-06-23T05:06:09.665Z,14.38
2018-06-23T05:08:38.784Z,14.34
2018-06-23T05:11:07.301Z,14.37
2018-06-23T05:13:35.786Z,14.39
2018-06-23T05:16:04.525Z,14.36
2018-06-23T05:18:32.906Z,14.30
2018-06-23T05:21:01.364Z,14.32
2018-06-23T05:23:30.245Z,14.40
2018-06-23T05:25:58.692Z,14.46
2018-06-23T05:28:26.857Z,14.52
2018-06-23T05:30:55.126Z,14.53
2018-06-23T05:33:23.923Z,14.52
2018-06-23T05:35:52.673Z,14.48
2018-06-23T05:38:20.976Z,14.43
2018-06-23T05:40:49.256Z,14.46
2018-06-23T05:43:17.500Z,14.46
2018-06-23T05:45:45.744Z,14.49
2018-06-23T05:48:14.088Z,14.49
2018-06-23T05:50:42.421Z,14.54
2018-06-23T05:53:10.677Z,14.63
2018-06-23T05:55:38.948Z,14.69
2018-06-23T05:58:07.184Z,14.75
2018-06-23T06:00:35.842Z,14.81
2018-06-23T06:03:04.158Z,14.84
2018-06-23T06:05:32.457Z,14.88
2018-06-23T06:08:00.717Z,14.86
2018-06-23T06:10:28.990Z,14.91
2018-06-23T06:12:57.249Z,14.92
2018-06-23T06:15:25.477Z,14.93
2018-06-23T06:17:53.764Z,14.94
2018-06-23T06:20:22.013Z,14.97
2018-06-23T06:22:50.245Z,14.98
2018-06-23T06:25:20.412Z,15.03
2018-06-23T06:27:48.800Z,15.09
2018-06-23T06:30:17.126Z,15.13
2018-06-23T06:32:45.371Z,15.18
2018-06-23T06:35:13.644Z,15.24
2018-06-23T06:37:48.255Z,15.26
2018-06-23T06:40:16.455Z,15.33
2018-06-23T06:42:44.924Z,15.36
2018-06-23T06:45:13.128Z,15.35
2018-06-23T06:47:41.360Z,15.34
2018-06-23T06:50:09.629Z,15.37
2018-06-23T06:52:37.841Z,15.37
2018-06-23T06:55:06.076Z,15.37
2018-06-23T06:57:37.499Z,15.41
2018-06-23T07:00:06.485Z,15.42
2018-06-23T07:02:34.697Z,15.43
2018-06-23T07:05:02.972Z,15.41
2018-06-23T07:07:31.267Z,15.41
2018-06-23T07:09:59.541Z,15.43
2018-06-23T07:12:27.761Z,15.51
2018-06-23T07:14:55.998Z,15.55
2018-06-23T07:17:24.221Z,15.59
2018-06-23T07:19:52.482Z,15.60
2018-06-23T07:22:20.749Z,15.57
2018-06-23T07:24:49.007Z,15.55
2018-06-23T07:27:17.259Z,15.53
2018-06-23T07:29:45.493Z,15.49
2018-06-23T07:32:13.747Z,15.50
2018-06-23T07:34:42.064Z,15.45
2018-06-23T07:37:10.248Z,15.44
2018-06-23T07:39:38.472Z,15.47
2018-06-23T07:42:06.697Z,15.44
2018-06-23T07:44:34.912Z,15.37
2018-06-23T07:47:03.177Z,15.31
2018-06-23T07:49:31.719Z,15.29
2018-06-23T07:52:00.036Z,15.24
2018-06-23T07:54:28.409Z,15.18
2018-06-23T07:56:56.632Z,15.07
2018-06-23T07:59:25.019Z,15.02
2018-06-23T08:01:53.309Z,14.93
2018-06-23T08:04:22.053Z,14.93
2018-06-23T08:06:50.293Z,14.97
2018-06-23T08:09:18.846Z,14.98
2018-06-23T08:11:47.114Z,15.05
2018-06-23T08:14:16.477Z,15.12
2018-06-23T08:16:44.738Z,15.25
2018-06-23T08:19:12.952Z,15.34
2018-06-23T08:21:41.193Z,15.40
2018-06-23T08:24:09.412Z,15.49
2018-06-23T08:26:37.716Z,15.60
2018-06-23T08:29:05.907Z,15.71
2018-06-23T08:31:34.126Z,15.82
2018-06-23T08:34:02.383Z,15.90
2018-06-23T08:36:30.809Z,15.93
2018-06-23T08:38:59.049Z,16.02
2018-06-23T08:41:27.326Z,16.04
2018-06-23T08:43:55.567Z,16.14
2018-06-23T08:46:23.796Z,16.29
2018-06-23T08:48:52.033Z,16.42
2018-06-23T08:51:20.516Z,16.59
2018-06-23T08:53:48.827Z,16.66
2018-06-23T08:56:17.049Z,16.66
2018-06-23T08:58:45.268Z,16.66
2018-06-23T09:01:13.517Z,16.70
2018-06-23T09:03:41.761Z,16.73
2018-06-23T09:06:09.965Z,16.76
2018-06-23T09:08:38.176Z,16.76
2018-06-23T09:11:06.506Z,16.73
2018-06-23T09:13:34.775Z,16.71
2018-06-23T09:16:02.985Z,16.67
2018-06-23T09:18:31.312Z,16.65
2018-06-23T09:20:59.612Z,16.61
2018-06-23T09:23:27.836Z,16.57
2018-06-23T09:25:56.163Z,16.51
2018-06-23T09:28:24.421Z,16.50
2018-06-23T09:30:52.649Z,16.51
2018-06-23T09:33:20.892Z,16.57
2018-06-23T09:35:49.151Z,16.67
2018-06-23T09:38:17.465Z,16.81
2018-06-23T09:40:45.793Z,16.94
2018-06-23T09:43:13.986Z,16.95
2018-06-23T09:45:42.448Z,16.96
2018-06-23T09:48:10.984Z,16.94
2018-06-23T09:50:39.197Z,16.91
2018-06-23T09:53:07.491Z,16.84
2018-06-23T09:55:35.720Z,16.78
2018-06-23T09:58:03.992Z,16.70
2018-06-23T10:00:32.229Z,16.65
2018-06-23T10:03:01.669Z,16.62
2018-06-23T10:05:30.157Z,16.61
2018-06-23T10:07:59.281Z,16.62
2018-06-23T10:10:27.692Z,16.63
2018-06-23T10:12:56.052Z,16.66
2018-06-23T10:15:24.371Z,16.68
2018-06-23T10:17:52.784Z,16.74
2018-06-23T10:20:21.057Z,16.82
2018-06-23T10:22:49.240Z,16.93
2018-06-23T10:25:17.576Z,17.01
2018-06-23T10:27:45.799Z,17.07
2018-06-23T10:30:14.062Z,17.14
2018-06-23T10:32:42.285Z,17.21
2018-06-23T10:35:10.549Z,17.28
2018-06-23T10:37:38.832Z,17.30
2018-06-23T10:40:07.137Z,17.31
2018-06-23T10:42:35.345Z,17.27
2018-06-23T10:45:03.743Z,17.25
2018-06-23T10:47:31.940Z,17.25
2018-06-23T10:50:00.176Z,17.26
2018-06-23T10:52:28.785Z,17.26
2018-06-23T10:54:57.040Z,17.30
2018-06-23T10:57:25.341Z,17.35
2018-06-23T10:59:53.676Z,17.35
2018-06-23T11:02:21.929Z,17.41
2018-06-23T11:04:50.284Z,17.46
2018-06-23T11:07:18.513Z,17.44
2018-06-23T11:09:46.748Z,17.39
2018-06-23T11:12:14.990Z,17.32
2018-06-23T11:14:43.231Z,17.34
2018-06-23T11:17:11.485Z,17.41
2018-06-23T11:19:39.796Z,17.47
2018-06-23T11:22:08.037Z,17.55
2018-06-23T11:24:36.686Z,17.66
2018-06-23T11:27:04.830Z,17.77
2018-06-23T11:29:33.083Z,17.88
2018-06-23T11:32:01.417Z,18.01
2018-06-23T11:34:29.698Z,18.18
2018-06-23T11:36:58.148Z,18.34
2018-06-23T11:39:26.393Z,18.44
2018-06-23T11:41:54.621Z,18.44
2018-06-23T11:44:22.920Z,18.38
2018-06-23T11:46:51.145Z,18.33
2018-06-23T11:49:19.384Z,18.30
2018-06-23T11:51:47.688Z,18.25
2018-06-23T11:54:15.924Z,18.15
2018-06-23T11:56:44.176Z,18.09
2018-06-23T11:59:12.376Z,18.08
2018-06-23T12:01:40.733Z,18.07
2018-06-23T12:04:08.992Z,17.99
2018-06-23T12:06:37.328Z,17.92
2018-06-23T12:09:07.896Z,17.83
2018-06-23T12:11:36.164Z,17.76
2018-06-23T12:14:04.386Z,17.72
2018-06-23T12:16:32.722Z,17.68
2018-06-23T12:19:01.137Z,17.64
2018-06-23T12:21:29.385Z,17.61
2018-06-23T12:23:57.646Z,17.58
2018-06-23T12:26:25.894Z,17.52
2018-06-23T12:28:54.164Z,17.44
2018-06-23T12:31:22.383Z,17.38
2018-06-23T12:33:50.617Z,17.43
2018-06-23T12:36:18.859Z,17.49
2018-06-23T12:38:47.110Z,17.57
2018-06-23T12:41:15.337Z,17.69
2018-06-23T12:43:43.637Z,17.77
2018-06-23T12:46:11.905Z,17.86
2018-06-23T12:48:40.271Z,17.93
2018-06-23T12:51:09.232Z,18.03
2018-06-23T12:53:37.493Z,18.09
2018-06-23T12:56:05.849Z,18.04
2018-06-23T12:58:34.216Z,18.04
2018-06-23T13:01:02.542Z,18.09
2018-06-23T13:03:30.833Z,18.20
2018-06-23T13:05:59.121Z,18.40
2018-06-23T13:08:27.341Z,18.52
2018-06-23T13:10:55.587Z,18.72
2018-06-23T13:13:23.837Z,18.92
2018-06-23T13:15:52.107Z,19.09
2018-06-23T13:18:20.368Z,19.35
2018-06-23T13:20:48.693Z,19.58
2018-06-23T13:23:16.980Z,19.65
2018-06-23T13:25:45.212Z,19.61
2018-06-23T13:28:13.518Z,19.73
2018-06-23T13:30:41.818Z,19.71
2018-06-23T13:33:10.045Z,19.60
2018-06-23T13:35:38.275Z,19.47
2018-06-23T13:38:06.596Z,19.39
2018-06-23T13:40:34.938Z,19.36
2018-06-23T13:43:03.191Z,19.45
2018-06-23T13:45:31.525Z,19.66
2018-06-23T13:47:59.781Z,19.83
2018-06-23T13:50:28.033Z,20.09
2018-06-23T13:52:56.297Z,20.17
2018-06-23T13:55:24.651Z,20.18
2018-06-23T13:57:52.904Z,20.19
2018-06-23T14:00:21.189Z,20.09
2018-06-23T14:02:49.497Z,19.93
2018-06-23T14:05:17.753Z,19.78
2018-06-23T14:07:45.968Z,19.68
2018-06-23T14:10:14.237Z,19.67
2018-06-23T14:12:42.493Z,19.70
2018-06-23T14:15:10.802Z,19.77
2018-06-23T14:17:39.244Z,19.85
2018-06-23T14:20:07.569Z,19.97
2018-06-23T14:22:35.822Z,20.14
2018-06-23T14:25:04.185Z,20.23
2018-06-23T14:27:32.682Z,20.46
2018-06-23T14:30:01.476Z,20.57
2018-06-23T14:32:30.185Z,20.69
2018-06-23T14:34:58.420Z,20.80
2018-06-23T14:37:26.716Z,20.83
2018-06-23T14:39:54.978Z,20.90
2018-06-23T14:42:24.249Z,21.05
2018-06-23T14:44:52.520Z,21.14
2018-06-23T14:47:22.558Z,21.12
2018-06-23T14:50:14.070Z,20.90
2018-06-23T14:55:33.986Z,20.60
2018-06-23T14:58:05.122Z,20.46
2018-06-23T15:00:36.170Z,20.42
2018-06-23T15:03:05.754Z,20.38
2018-06-23T15:05:34.005Z,20.29
2018-06-23T15:09:14.324Z,20.17
2018-06-23T15:11:53.850Z,20.00
2018-06-23T15:14:22.569Z,19.96
2018-06-23T15:16:50.867Z,19.93
2018-06-23T15:19:19.072Z,19.95
2018-06-23T15:21:47.374Z,19.92
2018-06-23T15:24:15.743Z,19.88
2018-06-23T15:26:44.037Z,19.87
2018-06-23T15:29:12.281Z,19.88
2018-06-23T15:31:40.589Z,19.97
2018-06-23T15:34:08.912Z,20.21
2018-06-23T15:36:37.200Z,20.31
2018-06-23T15:39:07.809Z,20.47
2018-06-23T15:41:36.061Z,20.65
2018-06-23T15:44:04.328Z,20.87
2018-06-23T15:46:32.688Z,21.08
2018-06-23T15:49:01.045Z,21.15
2018-06-23T15:51:29.293Z,21.34
2018-06-23T15:53:57.581Z,21.36
2018-06-23T15:56:25.822Z,21.28
2018-06-23T15:58:54.084Z,21.08
2018-06-23T16:01:22.375Z,20.95
2018-06-23T16:03:50.638Z,20.95
2018-06-23T16:06:19.051Z,21.54
2018-06-23T16:08:47.387Z,22.25
2018-06-23T16:11:15.591Z,22.38
2018-06-23T16:13:43.877Z,22.15
2018-06-23T16:16:12.142Z,21.84
2018-06-23T16:18:40.445Z,21.55
2018-06-23T16:21:08.668Z,21.20
2018-06-23T16:23:36.996Z,20.95
2018-06-23T16:26:05.313Z,20.77
2018-06-23T16:28:33.621Z,20.61
2018-06-23T16:31:01.962Z,20.50
2018-06-23T16:33:30.280Z,20.81
2018-06-23T16:35:58.683Z,20.97
2018-06-23T16:38:26.938Z,20.81
2018-06-23T16:40:55.210Z,20.63
2018-06-23T16:43:23.437Z,20.43
2018-06-23T16:45:51.680Z,20.26
2018-06-23T16:48:19.931Z,20.17
2018-06-23T16:50:48.181Z,20.27
2018-06-23T16:53:16.505Z,20.32
2018-06-23T16:55:44.761Z,20.37
2018-06-23T16:58:13.196Z,20.28
2018-06-23T17:00:41.621Z,20.18
2018-06-23T17:03:09.961Z,20.38
2018-06-23T17:05:38.197Z,20.87
2018-06-23T17:08:06.464Z,21.22
2018-06-23T17:10:34.748Z,21.34
2018-06-23T17:13:02.977Z,21.10
2018-06-23T17:15:31.271Z,20.81
2018-06-23T17:17:59.524Z,20.59
2018-06-23T17:20:27.817Z,20.42
2018-06-23T17:22:56.085Z,20.30
2018-06-23T17:25:24.377Z,20.23
2018-06-23T17:27:52.625Z,20.16
2018-06-23T17:30:20.925Z,20.14
2018-06-23T17:32:49.256Z,20.34
2018-06-23T17:35:17.568Z,20.40
2018-06-23T17:37:45.864Z,20.37
2018-06-23T17:40:14.138Z,20.31
2018-06-23T17:42:42.385Z,20.30
2018-06-23T17:45:10.858Z,20.22
2018-06-23T17:47:39.208Z,20.13
2018-06-23T17:50:07.758Z,20.15
2018-06-23T17:52:36.369Z,20.22
2018-06-23T17:55:05.768Z,20.29
2018-06-23T17:57:34.306Z,20.48
2018-06-23T18:00:02.943Z,20.55
2018-06-23T18:02:31.219Z,20.55
2018-06-23T18:04:59.529Z,20.48
2018-06-23T18:07:27.857Z,20.41
2018-06-23T18:09:56.142Z,20.35
2018-06-23T18:12:24.456Z,20.52
2018-06-23T18:14:52.757Z,20.56
2018-06-23T18:17:21.042Z,20.48
2018-06-23T18:19:49.469Z,20.35
2018-06-23T18:22:17.768Z,20.25
2018-06-23T18:24:46.041Z,20.16
2018-06-23T18:27:14.361Z,20.07
2018-06-23T18:29:42.588Z,19.99
2018-06-23T18:32:10.845Z,19.91
2018-06-23T18:34:39.081Z,19.80
2018-06-23T18:37:07.345Z,19.70
2018-06-23T18:39:35.584Z,19.62
2018-06-23T18:42:03.881Z,19.56
2018-06-23T18:44:32.097Z,19.53
2018-06-23T18:47:00.409Z,19.50
2018-06-23T18:49:28.641Z,19.45
2018-06-23T18:51:57.029Z,19.40
2018-06-23T18:54:25.272Z,19.36
2018-06-23T18:56:53.550Z,19.30
2018-06-23T18:59:21.824Z,19.26
2018-06-23T19:01:50.045Z,19.23
2018-06-23T19:04:18.341Z,19.19
2018-06-23T19:06:46.681Z,19.14
2018-06-23T19:09:15.015Z,19.08
2018-06-23T19:11:44.289Z,19.02
2018-06-23T19:14:12.528Z,18.97
2018-06-23T19:16:40.776Z,18.93
2018-06-23T19:19:09.020Z,18.88
2018-06-23T19:21:37.348Z,18.83
2018-06-23T19:24:05.868Z,18.80
2018-06-23T19:26:34.108Z,18.76
2018-06-23T19:29:02.390Z,18.73
2018-06-23T19:31:30.645Z,18.70
2018-06-23T19:33:59.014Z,18.69
2018-06-23T19:36:27.256Z,18.67
2018-06-23T19:38:55.607Z,18.64
2018-06-23T19:41:26.877Z,18.59
2018-06-23T19:43:55.227Z,18.56
2018-06-23T19:46:23.463Z,18.51
2018-06-23T19:48:51.947Z,18.47
2018-06-23T19:51:20.189Z,18.45
2018-06-23T19:53:48.614Z,18.41
2018-06-23T19:56:16.796Z,18.38
2018-06-23T19:58:45.014Z,18.34
2018-06-23T20:01:13.354Z,18.31
2018-06-23T20:03:41.650Z,18.28
2018-06-23T20:06:09.917Z,18.25
2018-06-23T20:08:38.200Z,18.18
2018-06-23T20:11:06.601Z,18.14
2018-06-23T20:13:34.817Z,18.10
2018-06-23T20:16:03.066Z,18.07
2018-06-23T20:18:31.417Z,18.05
2018-06-23T20:20:59.689Z,18.03
2018-06-23T20:23:28.017Z,18.01
2018-06-23T20:25:56.259Z,17.96
2018-06-23T20:28:24.553Z,17.93
2018-06-23T20:30:52.752Z,17.90
2018-06-23T20:33:21.096Z,17.85
2018-06-23T20:35:49.364Z,17.82
2018-06-23T20:38:17.700Z,17.79
2018-06-23T20:40:45.961Z,17.77
2018-06-23T20:43:14.165Z,17.74
2018-06-23T20:45:42.446Z,17.71
2018-06-23T20:48:10.797Z,17.70
2018-06-23T20:50:39.035Z,17.69
2018-06-23T20:53:07.348Z,17.67
2018-06-23T20:55:35.547Z,17.65
2018-06-23T20:58:03.977Z,17.63
2018-06-23T21:00:32.217Z,17.62
2018-06-23T21:03:00.456Z,17.61
2018-06-23T21:05:28.721Z,17.63
2018-06-23T21:07:56.966Z,17.61
2018-06-23T21:10:38.969Z,17.63
2018-06-23T21:13:07.204Z,17.61
2018-06-23T21:15:35.789Z,17.61
2018-06-23T21:18:04.045Z,17.61
2018-06-23T21:20:32.753Z,17.61
2018-06-23T21:23:01.436Z,17.63
2018-06-23T21:25:29.768Z,17.67
2018-06-23T21:27:58.107Z,17.71
2018-06-23T21:30:26.353Z,17.74
2018-06-23T21:32:55.013Z,17.72
2018-06-23T21:35:24.537Z,17.71
2018-06-23T21:37:52.893Z,17.71
2018-06-23T21:40:21.213Z,17.71
2018-06-23T21:42:49.445Z,17.70
2018-06-23T21:45:17.757Z,17.70
2018-06-23T21:47:46.057Z,17.69
2018-06-23T21:50:14.317Z,17.66
2018-06-23T21:52:42.532Z,17.64
2018-06-23T21:55:10.753Z,17.59
2018-06-23T21:57:39.058Z,17.57
2018-06-23T22:00:20.877Z,17.59
2018-06-23T22:02:49.150Z,17.61
2018-06-23T22:05:17.385Z,17.62
2018-06-23T22:07:45.641Z,17.63
2018-06-23T22:10:13.893Z,17.63
2018-06-23T22:12:42.149Z,17.62
2018-06-23T22:15:10.431Z,17.62
2018-06-23T22:17:38.695Z,17.61
2018-06-23T22:20:07.867Z,17.61
2018-06-23T22:22:36.172Z,17.58
2018-06-23T22:25:04.500Z,17.58
2018-06-23T22:27:32.755Z,17.57
2018-06-23T22:30:01.018Z,17.58
2018-06-23T22:32:29.266Z,17.59
2018-06-23T22:34:57.548Z,17.61
2018-06-23T22:37:25.822Z,17.59
2018-06-23T22:39:54.100Z,17.59
2018-06-23T22:42:22.345Z,17.59
2018-06-23T22:44:50.548Z,17.59
2018-06-23T22:47:18.877Z,17.58
2018-06-23T22:49:47.129Z,17.58
2018-06-23T22:52:15.402Z,17.58
2018-06-23T22:54:43.650Z,17.58
2018-06-23T22:57:11.909Z,17.58
2018-06-23T22:59:40.107Z,17.58
2018-06-23T23:02:08.402Z,17.57
2018-06-23T23:04:36.736Z,17.56
2018-06-23T23:07:05.225Z,17.55
2018-06-23T23:09:33.461Z,17.55
2018-06-23T23:12:01.997Z,17.55
2018-06-23T23:14:30.241Z,17.55
2018-06-23T23:16:58.613Z,17.55
2018-06-23T23:19:27.081Z,17.53
2018-06-23T23:21:55.352Z,17.55
2018-06-23T23:24:23.774Z,17.55
2018-06-23T23:26:52.089Z,17.56
2018-06-23T23:29:20.345Z,17.55
2018-06-23T23:31:48.604Z,17.53
2018-06-23T23:34:16.884Z,17.52
2018-06-23T23:36:45.113Z,17.51
2018-06-23T23:39:13.379Z,17.51
2018-06-23T23:41:41.616Z,17.50
2018-06-23T23:44:09.879Z,17.50
2018-06-23T23:46:38.121Z,17.48
2018-06-23T23:49:06.404Z,17.46
2018-06-23T23:51:34.657Z,17.46
2018-06-23T23:54:02.933Z,17.44
2018-06-23T23:56:31.257Z,17.44
2018-06-23T23:58:59.531Z,17.42
